createdAt,value
2023-05-23T00:00:29.430Z,99660.47
2023-05-23T00:02:02.202Z,99667.31
2023-05-23T00:03:35.087Z,99665.47
2023-05-23T00:05:08.063Z,99675.03
2023-05-23T00:06:40.383Z,99669.84
2023-05-23T00:08:12.746Z,99662.06
2023-05-23T00:09:44.940Z,99655.22
2023-05-23T00:11:17.091Z,99657.81
2023-05-23T00:12:49.199Z,99656.97
2023-05-23T00:14:21.317Z,99650.09
2023-05-23T00:15:53.477Z,99652.72
2023-05-23T00:17:28.371Z,99649.25
2023-05-23T00:19:00.534Z,99643.16
2023-05-23T00:20:35.205Z,99650.06
2023-05-23T00:22:07.467Z,99642.38
2023-05-23T00:23:42.725Z,99642.41
2023-05-23T00:25:14.838Z,99646.03
2023-05-23T00:26:47.307Z,99649.63
2023-05-23T00:28:19.386Z,99644.50
2023-05-23T00:29:51.451Z,99646.13
2023-05-23T00:31:24.236Z,99638.28
2023-05-23T00:32:56.552Z,99641.72
2023-05-23T00:34:28.929Z,99645.19
2023-05-23T00:36:01.208Z,99646.09
2023-05-23T00:37:34.661Z,99641.91
2023-05-23T00:39:07.094Z,99650.72
2023-05-23T00:40:39.355Z,99647.31
2023-05-23T00:42:11.465Z,99645.56
2023-05-23T00:43:43.638Z,99655.94
2023-05-23T00:45:17.406Z,99650.72
2023-05-23T00:46:55.654Z,99651.53
2023-05-23T00:48:28.092Z,99653.44
2023-05-23T00:50:00.486Z,99650.06
2023-05-23T00:51:32.744Z,99646.69
2023-05-23T00:53:05.163Z,99644.16
2023-05-23T00:54:37.705Z,99640.69
2023-05-23T00:56:09.775Z,99639.06
2023-05-23T00:57:44.809Z,99639.06
2023-05-23T00:59:17.251Z,99638.22
2023-05-23T01:00:50.858Z,99640.06
2023-05-23T01:02:23.205Z,99640.13
2023-05-23T01:03:55.471Z,99642.88
2023-05-23T01:05:27.815Z,99645.56
2023-05-23T01:07:01.143Z,99651.88
2023-05-23T01:08:33.076Z,99642.22
2023-05-23T01:12:19.375Z,99650.16
2023-05-23T01:14:00.036Z,99651.19
2023-05-23T01:15:51.835Z,99641.84
2023-05-23T01:18:08.783Z,99653.94
2023-05-23T01:19:58.872Z,99652.22
2023-05-23T01:21:32.350Z,99647.00
2023-05-23T01:23:22.088Z,99649.53
2023-05-23T01:25:46.726Z,99649.72
2023-05-23T01:27:30.908Z,99651.63
2023-05-23T01:29:40.165Z,99647.44
2023-05-23T01:31:12.745Z,99643.22
2023-05-23T01:32:45.732Z,99639.75
2023-05-23T01:34:19.855Z,99641.47
2023-05-23T01:35:52.370Z,99648.47
2023-05-23T01:39:06.985Z,99634.88
2023-05-23T01:40:39.403Z,99641.63
2023-05-23T01:42:11.859Z,99632.28
2023-05-23T01:43:44.031Z,99635.84
2023-05-23T01:45:17.031Z,99640.13
2023-05-23T01:46:49.294Z,99627.28
2023-05-23T01:48:22.218Z,99625.53
2023-05-23T01:49:55.810Z,99636.84
2023-05-23T01:51:29.144Z,99632.63
2023-05-23T01:53:01.874Z,99628.41
2023-05-23T01:54:35.827Z,99633.69
2023-05-23T01:56:08.845Z,99633.69
2023-05-23T01:57:41.008Z,99632.03
2023-05-23T01:59:13.113Z,99633.00
2023-05-23T02:00:45.293Z,99634.78
2023-05-23T02:02:17.581Z,99636.59
2023-05-23T02:03:50.163Z,99644.41
2023-05-23T02:05:22.247Z,99643.63
2023-05-23T02:06:54.383Z,99647.13
2023-05-23T02:08:26.658Z,99646.31
2023-05-23T02:09:58.759Z,99642.00
2023-05-23T02:11:30.986Z,99638.63
2023-05-23T02:13:03.108Z,99635.03
2023-05-23T02:14:35.352Z,99629.84
2023-05-23T02:16:08.054Z,99632.31
2023-05-23T02:17:41.830Z,99628.84
2023-05-23T02:19:14.019Z,99635.69
2023-05-23T02:20:46.285Z,99630.63
2023-05-23T02:22:18.446Z,99639.38
2023-05-23T02:23:50.591Z,99636.03
2023-05-23T02:25:22.690Z,99644.78
2023-05-23T02:26:54.934Z,99649.13
2023-05-23T02:28:27.030Z,99640.53
2023-05-23T02:29:59.201Z,99650.94
2023-05-23T02:31:31.994Z,99645.78
2023-05-23T02:33:08.511Z,99654.53
2023-05-23T02:34:40.917Z,99649.44
2023-05-23T02:36:13.024Z,99655.56
2023-05-23T02:37:45.232Z,99649.53
2023-05-23T02:39:17.527Z,99652.19
2023-05-23T02:40:50.914Z,99653.94
2023-05-23T02:42:25.031Z,99651.16
2023-05-23T02:43:57.155Z,99653.03
2023-05-23T02:45:29.344Z,99650.63
2023-05-23T02:47:01.621Z,99651.50
2023-05-23T02:48:33.825Z,99648.94
2023-05-23T02:50:06.831Z,99654.94
2023-05-23T02:51:38.910Z,99648.94
2023-05-23T02:53:11.142Z,99652.50
2023-05-23T02:54:43.528Z,99646.50
2023-05-23T02:56:16.613Z,99655.28
2023-05-23T02:57:48.802Z,99646.75
2023-05-23T02:59:22.541Z,99652.09
2023-05-23T03:00:54.710Z,99654.88
2023-05-23T03:02:27.539Z,99654.03
2023-05-23T03:03:59.832Z,99652.38
2023-05-23T03:05:32.031Z,99654.22
2023-05-23T03:07:07.153Z,99650.78
2023-05-23T03:08:44.266Z,99653.28
2023-05-23T03:10:16.555Z,99654.09
2023-05-23T03:11:48.746Z,99649.78
2023-05-23T03:13:20.923Z,99658.41
2023-05-23T03:14:53.124Z,99658.47
2023-05-23T03:16:25.353Z,99659.38
2023-05-23T03:17:57.630Z,99656.00
2023-05-23T03:19:29.972Z,99651.66
2023-05-23T03:21:02.298Z,99642.09
2023-05-23T03:22:34.397Z,99656.81
2023-05-23T03:24:09.093Z,99657.63
2023-05-23T03:25:41.537Z,99654.31
2023-05-23T03:27:13.928Z,99649.16
2023-05-23T03:28:46.120Z,99655.19
2023-05-23T03:30:18.581Z,99653.53
2023-05-23T03:31:50.840Z,99659.59
2023-05-23T03:33:22.975Z,99654.44
2023-05-23T03:34:55.152Z,99660.53
2023-05-23T03:38:04.588Z,99665.59
2023-05-23T03:39:39.379Z,99663.91
2023-05-23T03:41:12.000Z,99672.47
2023-05-23T03:42:47.163Z,99675.88
2023-05-23T03:44:19.485Z,99673.22
2023-05-23T03:45:51.641Z,99674.88
2023-05-23T03:47:24.767Z,99677.38
2023-05-23T03:48:57.012Z,99678.13
2023-05-23T03:50:29.402Z,99678.88
2023-05-23T03:52:01.547Z,99683.19
2023-05-23T03:53:35.205Z,99687.47
2023-05-23T03:55:09.869Z,99683.94
2023-05-23T03:56:41.884Z,99684.56
2023-05-23T03:58:14.023Z,99685.47
2023-05-23T03:59:46.279Z,99690.56
2023-05-23T04:01:18.459Z,99681.81
2023-05-23T04:02:52.448Z,99686.94
2023-05-23T04:04:25.482Z,99681.59
2023-05-23T04:05:58.204Z,99678.91
2023-05-23T04:07:30.873Z,99684.00
2023-05-23T04:09:03.866Z,99678.72
2023-05-23T04:10:36.072Z,99688.06
2023-05-23T04:12:10.056Z,99679.31
2023-05-23T04:13:43.162Z,99685.28
2023-05-23T04:15:15.482Z,99680.03
2023-05-23T04:16:48.572Z,99686.69
2023-05-23T04:18:20.732Z,99687.41
2023-05-23T04:19:52.887Z,99679.41
2023-05-23T04:21:25.134Z,99684.34
2023-05-23T04:22:57.307Z,99673.72
2023-05-23T04:24:29.449Z,99676.19
2023-05-23T04:26:01.645Z,99672.69
2023-05-23T04:27:35.086Z,99677.66
2023-05-23T04:29:07.186Z,99687.56
2023-05-23T04:30:39.434Z,99681.47
2023-05-23T04:32:11.988Z,99689.97
2023-05-23T04:33:44.157Z,99687.19
2023-05-23T04:35:16.381Z,99693.91
2023-05-23T04:36:49.947Z,99696.13
2023-05-23T04:38:23.342Z,99691.50
2023-05-23T04:39:55.380Z,99690.09
2023-05-23T04:41:27.545Z,99691.78
2023-05-23T04:43:00.362Z,99681.03
2023-05-23T04:44:32.480Z,99685.72
2023-05-23T04:46:04.744Z,99674.13
2023-05-23T04:47:37.866Z,99687.47
2023-05-23T04:49:10.568Z,99692.28
2023-05-23T04:50:43.205Z,99690.06
2023-05-23T04:52:15.391Z,99675.00
2023-05-23T04:53:48.386Z,99672.94
2023-05-23T04:55:20.704Z,99681.34
2023-05-23T04:56:52.867Z,99680.88
2023-05-23T04:58:25.180Z,99682.25
2023-05-23T04:59:57.908Z,99681.78
2023-05-23T05:01:30.220Z,99677.91
2023-05-23T05:03:02.746Z,99681.03
2023-05-23T05:04:34.997Z,99679.06
2023-05-23T05:06:07.620Z,99678.69
2023-05-23T05:07:40.187Z,99681.81
2023-05-23T05:09:12.348Z,99678.00
2023-05-23T05:10:44.972Z,99680.16
2023-05-23T05:12:17.287Z,99677.38
2023-05-23T05:13:49.449Z,99677.09
2023-05-23T05:15:21.704Z,99676.81
2023-05-23T05:16:55.246Z,99678.25
2023-05-23T05:18:27.965Z,99676.28
2023-05-23T05:20:00.226Z,99676.16
2023-05-23T05:21:32.483Z,99675.81
2023-05-23T05:23:04.653Z,99677.28
2023-05-23T05:24:36.849Z,99674.59
2023-05-23T05:26:09.221Z,99672.53
2023-05-23T05:27:41.548Z,99673.09
2023-05-23T05:29:13.958Z,99668.47
2023-05-23T05:30:46.837Z,99672.47
2023-05-23T05:32:19.275Z,99676.56
2023-05-23T05:33:51.395Z,99669.34
2023-05-23T05:35:23.607Z,99668.22
2023-05-23T05:36:56.917Z,99678.31
2023-05-23T05:38:28.985Z,99677.72
2023-05-23T05:41:34.890Z,99678.22
2023-05-23T05:43:07.232Z,99675.34
2023-05-23T05:44:39.553Z,99674.22
2023-05-23T05:46:12.023Z,99671.22
2023-05-23T05:47:45.150Z,99671.88
2023-05-23T05:49:17.370Z,99677.56
2023-05-23T05:50:49.579Z,99680.63
2023-05-23T05:52:21.771Z,99678.47
2023-05-23T05:53:54.034Z,99680.69
2023-05-23T05:55:26.397Z,99683.94
2023-05-23T05:56:58.637Z,99685.31
2023-05-23T05:58:30.769Z,99682.38
2023-05-23T06:00:02.984Z,99684.69
2023-05-23T06:01:36.707Z,99686.22
2023-05-23T06:03:09.497Z,99682.44
2023-05-23T06:04:41.819Z,99686.72
2023-05-23T06:06:16.999Z,99682.19
2023-05-23T06:07:50.545Z,99681.00
2023-05-23T06:09:22.810Z,99680.09
2023-05-23T06:10:55.137Z,99680.91
2023-05-23T06:12:27.346Z,99683.41
2023-05-23T06:13:59.533Z,99683.41
2023-05-23T06:15:32.001Z,99679.63
2023-05-23T06:17:04.453Z,99678.44
2023-05-23T06:18:36.691Z,99686.16
2023-05-23T06:20:12.013Z,99681.34
2023-05-23T06:21:44.352Z,99684.75
2023-05-23T06:23:16.521Z,99683.78
2023-05-23T06:24:49.377Z,99683.38
2023-05-23T06:26:22.557Z,99682.19
2023-05-23T06:27:54.769Z,99684.59
2023-05-23T06:29:26.870Z,99686.88
2023-05-23T06:30:59.044Z,99681.50
2023-05-23T06:32:31.314Z,99671.44
2023-05-23T06:34:03.601Z,99686.00
2023-05-23T06:35:35.985Z,99682.00
2023-05-23T06:37:08.238Z,99677.25
2023-05-23T06:38:40.367Z,99683.03
2023-05-23T06:40:15.582Z,99681.72
2023-05-23T06:41:48.746Z,99679.03
2023-05-23T06:43:20.983Z,99682.41
2023-05-23T06:44:53.281Z,99676.13
2023-05-23T06:46:25.626Z,99674.38
2023-05-23T06:47:57.863Z,99674.03
2023-05-23T06:49:30.067Z,99673.75
2023-05-23T06:51:02.377Z,99669.09
2023-05-23T06:52:34.528Z,99672.41
2023-05-23T06:54:06.899Z,99674.63
2023-05-23T06:55:39.051Z,99672.78
2023-05-23T06:57:11.326Z,99665.56
2023-05-23T06:58:44.684Z,99662.66
2023-05-23T07:00:19.306Z,99658.81
2023-05-23T07:01:51.582Z,99667.38
2023-05-23T07:03:23.854Z,99668.81
2023-05-23T07:04:56.079Z,99673.94
2023-05-23T07:06:28.328Z,99668.31
2023-05-23T07:08:00.600Z,99663.75
2023-05-23T07:09:32.785Z,99665.41
2023-05-23T07:11:05.644Z,99658.78
2023-05-23T07:12:38.177Z,99663.00
2023-05-23T07:14:10.369Z,99666.09
2023-05-23T07:15:42.522Z,99660.47
2023-05-23T07:17:14.771Z,99661.91
2023-05-23T07:18:47.027Z,99662.47
2023-05-23T07:20:19.264Z,99656.00
2023-05-23T07:21:51.463Z,99665.38
2023-05-23T07:23:24.784Z,99654.47
2023-05-23T07:24:57.049Z,99658.41
2023-05-23T07:26:29.220Z,99659.34
2023-05-23T07:28:01.372Z,99654.09
2023-05-23T07:29:33.566Z,99656.44
2023-05-23T07:31:06.126Z,99648.16
2023-05-23T07:32:38.520Z,99646.16
2023-05-23T07:34:10.820Z,99657.97
2023-05-23T07:35:44.299Z,99648.94
2023-05-23T07:37:16.518Z,99649.78
2023-05-23T07:38:48.724Z,99649.78
2023-05-23T07:40:22.287Z,99652.91
2023-05-23T07:41:54.491Z,99649.22
2023-05-23T07:43:26.698Z,99652.38
2023-05-23T07:44:58.826Z,99636.41
2023-05-23T07:46:31.114Z,99648.59
2023-05-23T07:48:03.371Z,99640.41
2023-05-23T07:49:36.324Z,99638.44
2023-05-23T07:51:08.668Z,99645.94
2023-05-23T07:52:42.158Z,99642.28
2023-05-23T07:54:16.494Z,99638.72
2023-05-23T07:55:48.987Z,99643.56
2023-05-23T07:57:21.335Z,99640.31
2023-05-23T07:58:53.507Z,99632.31
2023-05-23T08:00:25.809Z,99634.88
2023-05-23T08:01:58.016Z,99636.53
2023-05-23T08:03:30.232Z,99633.59
2023-05-23T08:05:02.463Z,99633.41
2023-05-23T08:06:35.963Z,99636.56
2023-05-23T08:08:08.226Z,99629.28
2023-05-23T08:09:41.203Z,99628.78
2023-05-23T08:11:15.364Z,99639.00
2023-05-23T08:12:47.557Z,99634.16
2023-05-23T08:14:19.785Z,99631.84
2023-05-23T08:15:51.957Z,99634.06
2023-05-23T08:17:24.372Z,99630.28
2023-05-23T08:18:56.725Z,99630.38
2023-05-23T08:20:31.876Z,99629.66
2023-05-23T08:22:05.210Z,99629.84
2023-05-23T08:23:37.489Z,99630.25
2023-05-23T08:25:10.183Z,99627.09
2023-05-23T08:26:42.471Z,99630.13
2023-05-23T08:28:14.745Z,99627.63
2023-05-23T08:29:47.089Z,99630.03
2023-05-23T08:31:19.276Z,99628.13
2023-05-23T08:32:53.559Z,99633.59
2023-05-23T08:34:25.789Z,99618.25
2023-05-23T08:35:57.941Z,99622.75
2023-05-23T08:39:03.659Z,99624.19
2023-05-23T08:40:37.095Z,99624.38
2023-05-23T08:42:09.422Z,99627.38
2023-05-23T08:43:41.593Z,99621.34
2023-05-23T08:45:14.099Z,99626.38
2023-05-23T08:46:47.278Z,99625.19
2023-05-23T08:48:20.212Z,99614.38
2023-05-23T08:49:53.515Z,99621.47
2023-05-23T08:51:28.860Z,99614.28
2023-05-23T08:53:01.683Z,99629.63
2023-05-23T08:54:34.503Z,99619.06
2023-05-23T08:56:06.666Z,99630.38
2023-05-23T08:57:39.449Z,99625.81
2023-05-23T08:59:12.380Z,99622.31
2023-05-23T09:00:44.881Z,99622.66
2023-05-23T09:02:17.548Z,99620.25
2023-05-23T09:03:51.414Z,99623.00
2023-05-23T09:05:25.685Z,99623.25
2023-05-23T09:06:58.883Z,99620.72
2023-05-23T09:08:31.319Z,99615.44
2023-05-23T09:10:11.131Z,99614.34
2023-05-23T09:11:46.414Z,99609.63
2023-05-23T09:13:20.910Z,99614.19
2023-05-23T09:14:53.323Z,99613.59
2023-05-23T09:16:33.438Z,99607.97
2023-05-23T09:18:05.919Z,99614.44
2023-05-23T09:19:42.024Z,99608.00
2023-05-23T09:21:14.381Z,99604.06
2023-05-23T09:22:48.474Z,99605.41
2023-05-23T09:24:23.257Z,99610.69
2023-05-23T09:25:55.566Z,99610.56
2023-05-23T09:27:27.749Z,99606.72
2023-05-23T09:29:00.885Z,99610.81
2023-05-23T09:30:32.953Z,99608.91
2023-05-23T09:32:13.210Z,99611.16
2023-05-23T09:33:51.819Z,99606.59
2023-05-23T09:35:24.120Z,99612.78
2023-05-23T09:36:56.363Z,99614.31
2023-05-23T09:38:29.885Z,99616.34
2023-05-23T09:40:04.640Z,99619.91
2023-05-23T09:41:37.085Z,99620.38
2023-05-23T09:43:09.250Z,99615.94
2023-05-23T09:44:44.414Z,99611.91
2023-05-23T09:46:16.596Z,99609.34
2023-05-23T09:47:52.734Z,99607.34
2023-05-23T09:49:27.148Z,99604.81
2023-05-23T09:51:01.662Z,99607.06
2023-05-23T09:52:41.654Z,99605.41
2023-05-23T09:54:13.914Z,99600.31
2023-05-23T09:55:47.171Z,99606.34
2023-05-23T09:57:19.542Z,99606.84
2023-05-23T09:58:52.329Z,99600.50
2023-05-23T10:00:29.003Z,99600.25
2023-05-23T10:02:03.804Z,99594.19
2023-05-23T10:03:41.368Z,99591.22
2023-05-23T10:05:28.939Z,99591.50
2023-05-23T10:08:38.004Z,99592.31
2023-05-23T10:10:11.261Z,99593.38
2023-05-23T10:11:43.909Z,99594.72
2023-05-23T10:13:16.404Z,99593.78
2023-05-23T10:14:54.087Z,99594.00
2023-05-23T10:16:35.249Z,99598.81
2023-05-23T10:18:15.368Z,99592.81
2023-05-23T10:19:50.303Z,99596.16
2023-05-23T10:21:32.539Z,99592.91
2023-05-23T10:23:05.846Z,99588.84
2023-05-23T10:24:38.560Z,99589.41
2023-05-23T10:26:11.824Z,99594.47
2023-05-23T10:27:43.969Z,99584.72
2023-05-23T10:29:16.121Z,99589.41
2023-05-23T10:30:48.627Z,99589.56
2023-05-23T10:32:21.234Z,99581.72
2023-05-23T10:34:16.093Z,99575.00
2023-05-23T10:35:48.288Z,99576.81
2023-05-23T10:37:38.768Z,99565.75
2023-05-23T10:39:20.909Z,99570.44
2023-05-23T10:41:06.239Z,99573.53
2023-05-23T10:42:56.258Z,99576.78
2023-05-23T10:44:32.285Z,99569.34
2023-05-23T10:46:04.556Z,99576.66
2023-05-23T10:47:36.775Z,99574.25
2023-05-23T10:49:09.155Z,99570.28
2023-05-23T10:50:42.317Z,99572.75
2023-05-23T10:52:17.358Z,99564.03
2023-05-23T10:53:54.696Z,99567.75
2023-05-23T10:55:28.509Z,99571.59
2023-05-23T10:57:05.473Z,99571.25
2023-05-23T10:58:39.751Z,99575.38
2023-05-23T11:00:16.464Z,99571.50
2023-05-23T11:01:51.813Z,99566.31
2023-05-23T11:03:49.974Z,99573.19
2023-05-23T11:05:25.426Z,99560.34
2023-05-23T11:06:58.922Z,99568.28
2023-05-23T11:08:48.315Z,99566.47
2023-05-23T11:10:21.196Z,99568.72
2023-05-23T11:12:05.651Z,99561.72
2023-05-23T11:13:58.353Z,99558.69
2023-05-23T11:15:43.202Z,99551.69
2023-05-23T11:17:19.848Z,99563.00
2023-05-23T11:18:52.132Z,99551.69
2023-05-23T11:20:28.925Z,99556.59
2023-05-23T11:22:02.637Z,99557.19
2023-05-23T11:23:44.920Z,99557.50
2023-05-23T11:25:17.415Z,99545.00
2023-05-23T11:27:04.446Z,99546.03
2023-05-23T11:28:56.317Z,99546.38
2023-05-23T11:30:29.476Z,99539.41
2023-05-23T11:32:01.650Z,99540.44
2023-05-23T11:33:33.862Z,99546.56
2023-05-23T11:35:08.147Z,99543.41
2023-05-23T11:36:41.199Z,99540.56
2023-05-23T11:38:15.409Z,99536.97
2023-05-23T11:39:47.646Z,99538.25
2023-05-23T11:41:20.029Z,99539.28
2023-05-23T11:42:54.123Z,99536.41
2023-05-23T11:44:26.595Z,99528.59
2023-05-23T11:45:58.882Z,99525.31
2023-05-23T11:47:31.155Z,99526.50
2023-05-23T11:49:03.309Z,99524.44
2023-05-23T11:50:53.661Z,99524.50
2023-05-23T11:52:26.596Z,99522.69
2023-05-23T11:54:02.011Z,99516.66
2023-05-23T11:55:34.329Z,99507.63
2023-05-23T11:57:06.513Z,99508.94
2023-05-23T11:58:39.991Z,99516.66
2023-05-23T12:00:12.839Z,99518.53
2023-05-23T12:01:45.295Z,99513.22
2023-05-23T12:03:17.602Z,99506.44
2023-05-23T12:04:50.126Z,99515.53
2023-05-23T12:06:25.019Z,99509.00
2023-05-23T12:07:57.476Z,99511.78
2023-05-23T12:09:29.758Z,99509.00
2023-05-23T12:12:43.015Z,99495.03
2023-05-23T12:14:17.119Z,99508.91
2023-05-23T12:15:52.777Z,99510.06
2023-05-23T12:17:25.247Z,99503.53
2023-05-23T12:18:59.313Z,99503.97
2023-05-23T12:20:35.433Z,99508.16
2023-05-23T12:22:08.862Z,99499.66
2023-05-23T12:23:42.625Z,99498.41
2023-05-23T12:25:14.844Z,99494.34
2023-05-23T12:26:51.918Z,99491.41
2023-05-23T12:28:41.507Z,99494.66
2023-05-23T12:30:17.737Z,99492.00
2023-05-23T12:31:51.323Z,99494.53
2023-05-23T12:33:23.782Z,99488.53
2023-05-23T12:34:56.036Z,99481.72
2023-05-23T12:36:32.685Z,99489.41
2023-05-23T12:38:10.001Z,99479.78
2023-05-23T12:39:45.744Z,99483.72
2023-05-23T12:41:20.298Z,99478.81
2023-05-23T12:42:56.335Z,99479.81
2023-05-23T12:44:32.218Z,99474.22
2023-05-23T12:46:04.430Z,99471.28
2023-05-23T12:47:36.689Z,99466.94
2023-05-23T12:49:08.837Z,99472.25
2023-05-23T12:50:40.942Z,99471.72
2023-05-23T12:52:13.111Z,99458.84
2023-05-23T12:53:45.900Z,99462.19
2023-05-23T12:55:18.310Z,99467.09
2023-05-23T12:56:53.230Z,99456.91
2023-05-23T12:58:25.669Z,99462.03
2023-05-23T12:59:57.875Z,99463.00
2023-05-23T13:01:30.607Z,99454.91
2023-05-23T13:03:02.947Z,99451.84
2023-05-23T13:04:35.267Z,99450.03
2023-05-23T13:06:07.844Z,99451.28
2023-05-23T13:07:40.026Z,99445.97
2023-05-23T13:09:12.219Z,99448.34
2023-05-23T13:10:44.482Z,99443.19
2023-05-23T13:12:17.223Z,99439.81
2023-05-23T13:13:50.538Z,99444.44
2023-05-23T13:15:22.708Z,99444.03
2023-05-23T13:16:55.043Z,99435.50
2023-05-23T13:18:27.282Z,99433.53
2023-05-23T13:19:59.487Z,99436.91
2023-05-23T13:21:32.282Z,99426.44
2023-05-23T13:23:04.533Z,99429.66
2023-05-23T13:24:38.105Z,99424.06
2023-05-23T13:26:10.419Z,99428.53
2023-05-23T13:27:42.670Z,99421.13
2023-05-23T13:29:14.868Z,99423.22
2023-05-23T13:30:47.726Z,99414.13
2023-05-23T13:32:22.641Z,99415.53
2023-05-23T13:33:57.186Z,99418.06
2023-05-23T13:35:29.623Z,99410.09
2023-05-23T13:37:05.354Z,99415.41
2023-05-23T13:38:38.259Z,99416.94
2023-05-23T13:40:14.158Z,99419.31
2023-05-23T13:41:46.484Z,99413.31
2023-05-23T13:43:18.642Z,99408.84
2023-05-23T13:44:51.245Z,99408.25
2023-05-23T13:46:23.477Z,99414.72
2023-05-23T13:47:55.760Z,99414.97
2023-05-23T13:49:28.016Z,99406.03
2023-05-23T13:51:02.054Z,99403.09
2023-05-23T13:52:34.402Z,99407.44
2023-05-23T13:54:06.889Z,99405.50
2023-05-23T13:55:39.030Z,99406.63
2023-05-23T13:57:11.251Z,99405.34
2023-05-23T13:58:47.000Z,99405.59
2023-05-23T14:00:19.543Z,99408.25
2023-05-23T14:01:51.924Z,99407.56
2023-05-23T14:03:25.002Z,99413.16
2023-05-23T14:04:57.227Z,99407.44
2023-05-23T14:06:29.610Z,99408.00
2023-05-23T14:08:02.066Z,99412.16
2023-05-23T14:09:34.258Z,99405.19
2023-05-23T14:11:06.506Z,99410.63
2023-05-23T14:12:38.664Z,99411.34
2023-05-23T14:14:10.962Z,99412.44
2023-05-23T14:15:43.332Z,99408.84
2023-05-23T14:17:19.070Z,99414.53
2023-05-23T14:18:51.359Z,99411.06
2023-05-23T14:20:24.070Z,99409.25
2023-05-23T14:21:56.399Z,99402.16
2023-05-23T14:23:28.654Z,99412.75
2023-05-23T14:25:00.922Z,99405.50
2023-05-23T14:26:33.056Z,99413.72
2023-05-23T14:28:05.278Z,99409.69
2023-05-23T14:29:37.444Z,99409.50
2023-05-23T14:31:09.753Z,99406.72
2023-05-23T14:32:42.151Z,99405.59
2023-05-23T15:48:54.368Z,99402.16
2023-05-23T15:50:26.861Z,99397.97
2023-05-23T15:51:59.119Z,99390.53
2023-05-23T15:53:34.370Z,99392.59
2023-05-23T15:55:09.602Z,99396.38
2023-05-23T15:56:41.834Z,99399.13
2023-05-23T15:58:13.983Z,99397.69
2023-05-23T15:59:46.118Z,99391.81
2023-05-23T16:01:18.371Z,99394.47
2023-05-23T16:02:50.623Z,99397.50
2023-05-23T16:04:23.906Z,99394.28
2023-05-23T16:05:56.159Z,99398.63
2023-05-23T16:07:28.497Z,99401.97
2023-05-23T16:09:00.717Z,99399.19
2023-05-23T16:10:32.901Z,99397.50
2023-05-23T16:12:05.397Z,99401.69
2023-05-23T16:13:37.507Z,99394.03
2023-05-23T16:15:10.322Z,99399.56
2023-05-23T16:16:42.547Z,99396.09
2023-05-23T16:18:15.349Z,99406.56
2023-05-23T16:19:47.551Z,99400.56
2023-05-23T16:21:21.077Z,99406.09
2023-05-23T16:24:28.621Z,99401.56
2023-05-23T16:26:00.828Z,99408.03
2023-05-23T16:27:33.221Z,99404.75
2023-05-23T16:29:05.509Z,99408.72
2023-05-23T16:30:37.715Z,99411.31
2023-05-23T16:32:10.057Z,99405.13
2023-05-23T16:33:42.264Z,99405.19
2023-05-23T16:35:14.524Z,99403.41
2023-05-23T16:36:46.872Z,99409.53
2023-05-23T16:38:19.081Z,99406.75
2023-05-23T16:39:51.236Z,99411.59
2023-05-23T16:41:23.561Z,99416.75
2023-05-23T16:42:58.826Z,99415.50
2023-05-23T16:44:31.221Z,99414.66
2023-05-23T16:46:03.572Z,99407.41
2023-05-23T16:47:36.070Z,99403.09
2023-05-23T16:49:08.241Z,99407.06
2023-05-23T16:50:40.697Z,99400.03
2023-05-23T16:52:13.185Z,99408.69
2023-05-23T16:53:45.362Z,99409.00
2023-05-23T16:55:17.553Z,99416.22
2023-05-23T16:56:49.778Z,99420.34
2023-05-23T16:58:22.134Z,99424.56
2023-05-23T16:59:54.401Z,99412.88
2023-05-23T17:01:26.618Z,99417.56
2023-05-23T17:02:58.979Z,99417.75
2023-05-23T17:04:31.211Z,99429.38
2023-05-23T17:06:03.554Z,99427.97
2023-05-23T17:07:35.887Z,99425.16
2023-05-23T17:09:08.798Z,99433.03
2023-05-23T17:10:41.506Z,99441.00
2023-05-23T17:13:49.689Z,99448.34
2023-05-23T17:15:22.055Z,99444.84
2023-05-23T17:16:54.202Z,99453.50
2023-05-23T17:18:26.380Z,99446.50
2023-05-23T17:19:58.537Z,99450.81
2023-05-23T18:15:19.810Z,99474.00
2023-05-23T18:16:52.003Z,99481.59
2023-05-23T18:18:24.289Z,99482.06
2023-05-23T18:19:56.553Z,99486.09
2023-05-23T18:21:29.402Z,99485.63
2023-05-23T18:23:01.964Z,99500.72
2023-05-23T18:24:34.157Z,99502.09
2023-05-23T18:26:06.398Z,99500.59
2023-05-23T18:27:38.556Z,99500.88
2023-05-23T18:29:10.970Z,99506.66
2023-05-23T18:30:43.488Z,99504.66
2023-05-23T18:32:16.096Z,99503.50
2023-05-23T18:33:48.451Z,99505.50
2023-05-23T18:35:21.993Z,99517.09
2023-05-23T18:36:54.292Z,99508.63
2023-05-23T18:38:26.615Z,99515.94
2023-05-23T18:40:00.741Z,99512.72
2023-05-23T18:41:33.127Z,99513.81
2023-05-23T18:43:05.388Z,99504.63
2023-05-23T18:44:37.698Z,99512.66
2023-05-23T18:46:10.212Z,99515.53
2023-05-23T18:47:42.833Z,99518.44
2023-05-23T18:50:47.778Z,99510.22
2023-05-23T18:52:20.312Z,99518.75
2023-05-23T18:53:52.995Z,99521.28
2023-05-23T18:55:25.452Z,99522.53
2023-05-23T18:56:57.686Z,99528.25
2023-05-23T18:58:30.019Z,99528.41
2023-05-23T19:00:03.692Z,99532.81
2023-05-23T19:01:36.447Z,99534.75
2023-05-23T19:03:09.071Z,99532.13
2023-05-23T19:04:41.749Z,99532.22
2023-05-23T19:06:14.292Z,99538.13
2023-05-23T19:07:46.588Z,99527.75
2023-05-23T19:09:18.890Z,99535.81
2023-05-23T19:10:51.386Z,99542.78
2023-05-23T19:12:23.645Z,99543.09
2023-05-23T19:13:55.952Z,99543.28
2023-05-23T19:15:28.360Z,99540.03
2023-05-23T19:17:00.663Z,99542.66
2023-05-23T19:18:33.054Z,99548.13
2023-05-23T19:20:05.850Z,99552.66
2023-05-23T19:21:38.118Z,99559.25
2023-05-23T19:23:10.346Z,99552.59
2023-05-23T19:24:42.742Z,99558.13
2023-05-23T19:26:15.188Z,99562.81
2023-05-23T19:27:50.261Z,99560.59
2023-05-23T19:29:22.513Z,99567.81
2023-05-23T19:30:54.758Z,99569.09
2023-05-23T19:32:27.228Z,99567.63
2023-05-23T19:33:59.649Z,99568.03
2023-05-23T19:35:32.787Z,99567.44
2023-05-23T19:37:06.101Z,99571.84
2023-05-23T19:38:38.318Z,99576.28
2023-05-23T19:40:11.211Z,99575.47
2023-05-23T19:41:43.487Z,99575.69
2023-05-23T19:43:16.284Z,99579.28
2023-05-23T19:44:51.571Z,99583.66
2023-05-23T19:46:23.956Z,99581.81
2023-05-23T19:47:58.087Z,99585.97
2023-05-23T19:49:30.757Z,99585.22
2023-05-23T19:51:03.000Z,99589.66
2023-05-23T19:54:14.313Z,99572.44
2023-05-23T19:55:46.586Z,99580.69
2023-05-23T19:57:18.877Z,99582.09
2023-05-23T19:58:51.169Z,99590.19
2023-05-23T20:00:23.709Z,99585.28
2023-05-23T20:01:55.996Z,99583.84
2023-05-23T20:03:30.280Z,99587.34
2023-05-23T20:05:02.802Z,99582.06
2023-05-23T20:06:35.140Z,99583.06
2023-05-23T20:08:07.535Z,99571.28
2023-05-23T20:09:39.872Z,99576.81
2023-05-23T20:11:12.984Z,99581.53
2023-05-23T20:12:45.432Z,99579.94
2023-05-23T20:14:17.800Z,99581.75
2023-05-23T20:15:50.779Z,99585.28
2023-05-23T20:17:23.088Z,99585.34
2023-05-23T20:18:55.374Z,99583.66
2023-05-23T20:20:27.622Z,99591.44
2023-05-23T20:21:59.830Z,99587.00
2023-05-23T20:23:32.105Z,99588.59
2023-05-23T20:25:05.414Z,99591.94
2023-05-23T20:26:37.528Z,99591.72
2023-05-23T20:28:09.839Z,99591.34
2023-05-23T20:29:42.268Z,99585.56
2023-05-23T20:31:14.756Z,99593.66
2023-05-23T20:32:47.090Z,99585.19
2023-05-23T20:34:19.414Z,99594.88
2023-05-23T20:35:51.930Z,99597.59
2023-05-23T20:37:24.969Z,99596.03
2023-05-23T20:38:57.483Z,99596.97
2023-05-23T20:40:30.057Z,99592.47
2023-05-23T20:42:02.499Z,99591.47
2023-05-23T20:43:37.718Z,99591.19
2023-05-23T20:45:10.202Z,99594.44